CYKJ

Key Lake Airport

Key Lake, Saskatchewan, Canada
TAF CYKJ 191838Z 1919/1924 17008KT 6SM -SN OVC015 TEMPO 1919/1924 2SM -SN BKN008 OVC012 RMK FCST BASED ON AUTO OBS. NXT FCST WILL BE ISSUED AT 200945Z
Issued Valid From Valid To
Nov-19 @ 18:38 UTC
(3 hours ago)
Nov-19 @ 19:00 UTC
(3 hours ago)
Nov-20 @ 00:00 UTC
(in 2 hours)
Nov-19 @ 19:00 to Nov-20 @ 00:00
TAF CYKJ 191838Z 1919/1924 17008KT 6SM -SN OVC015
Wind Visibility Clouds Conditions
170° at 8 knots 6 miles
  • Overcast at 1,500' AGL
  • Light Snow
Temporary Nov-19 @ 19:00 to Nov-20 @ 00:00
TEMPO 1919/1924 2SM -SN BKN008 OVC012 RMK FCST BASED ON AUTO OBS. NXT FCST WILL BE ISSUED AT 200945Z
Visibility Clouds Conditions
2 miles
  • Broken at 800' AGL
  • Overcast at 1,200' AGL
  • Light Snow
TAF CYKJ 191838Z 1919/1924 17008KT 6SM -SN OVC015 TEMPO 1919/1924 2SM -SN BKN008 OVC012 RMK FCST BASED ON AUTO OBS. NXT FCST WILL BE ISSUED AT 200945Z
Issued Nov-19 @ 18:38 UTC
(3 hours ago)
Valid From Nov-19 @ 19:00 UTC
(3 hours ago)
Valid To Nov-20 @ 00:00 UTC
(in 2 hours)
Nov-19 @ 19:00 - Nov-20 @ 00:00
Wind Visibility
170° at 8 knots 6 miles
Clouds
  • Overcast at 1,500' AGL
Conditions
  • Light Snow
Temporary Nov-19 @ 19:00 - Nov-20 @ 00:00
Clouds
  • Broken at 800' AGL
  • Overcast at 1,200' AGL
Conditions
  • Light Snow